createdAt,value
2017-12-15T00:01:14.331Z,7.32
2017-12-15T00:03:42.570Z,8.10
2017-12-15T00:06:10.810Z,6.42
2017-12-15T00:08:39.091Z,7.42
2017-12-15T00:11:07.377Z,14.22
2017-12-15T00:13:35.631Z,6.52
2017-12-15T00:16:03.878Z,7.32
2017-12-15T00:18:32.160Z,7.44
2017-12-15T00:21:00.405Z,8.58
2017-12-15T00:23:29.881Z,11.12
2017-12-15T00:25:59.115Z,10.08
2017-12-15T00:28:27.361Z,8.28
2017-12-15T00:30:55.653Z,9.14
2017-12-15T00:33:23.892Z,8.90
2017-12-15T00:35:52.130Z,8.86
2017-12-15T00:38:20.402Z,9.72
2017-12-15T00:40:48.653Z,10.74
2017-12-15T00:43:16.942Z,8.54
2017-12-15T00:45:44.430Z,10.58
2017-12-15T00:48:12.742Z,10.30
2017-12-15T00:50:40.978Z,13.30
2017-12-15T00:53:09.266Z,13.00
2017-12-15T00:55:37.512Z,15.70
2017-12-15T00:58:05.753Z,12.88
2017-12-15T01:00:34.034Z,14.28
2017-12-15T01:03:02.337Z,11.74
2017-12-15T01:05:30.573Z,11.86
2017-12-15T01:07:59.355Z,13.44
2017-12-15T01:10:28.647Z,15.62
2017-12-15T01:12:56.889Z,11.38
2017-12-15T01:15:25.165Z,14.38
2017-12-15T01:17:53.419Z,12.52
2017-12-15T01:20:21.710Z,13.08
2017-12-15T01:22:49.966Z,14.90
2017-12-15T01:25:18.252Z,13.04
2017-12-15T01:27:45.734Z,12.84
2017-12-15T01:30:17.440Z,14.04
2017-12-15T01:32:45.689Z,14.54
2017-12-15T01:35:13.981Z,14.04
2017-12-15T01:37:41.469Z,13.60
2017-12-15T01:40:09.713Z,16.00
2017-12-15T01:42:38.001Z,13.36
2017-12-15T01:45:06.254Z,15.90
2017-12-15T01:47:34.505Z,17.86
2017-12-15T01:50:02.789Z,13.86
2017-12-15T01:52:31.068Z,15.84
2017-12-15T01:55:06.613Z,18.52
2017-12-15T01:57:34.893Z,19.70
2017-12-15T02:00:03.173Z,16.52
2017-12-15T02:02:31.431Z,17.20
2017-12-15T02:05:03.064Z,17.82
2017-12-15T02:07:31.346Z,16.66
2017-12-15T02:09:59.606Z,17.96
2017-12-15T02:12:29.202Z,15.16
2017-12-15T02:14:57.458Z,18.08
2017-12-15T02:17:25.718Z,18.54
2017-12-15T02:19:54.946Z,13.90
2017-12-15T02:22:23.237Z,26.24
2017-12-15T02:24:51.486Z,16.32
2017-12-15T02:27:19.776Z,14.06
2017-12-15T02:29:48.070Z,21.20
2017-12-15T02:32:16.326Z,28.88
2017-12-15T02:34:44.606Z,17.38
2017-12-15T02:37:13.006Z,13.06
2017-12-15T02:39:41.259Z,20.10
2017-12-15T02:42:09.503Z,18.44
2017-12-15T02:44:37.800Z,16.04
2017-12-15T02:47:06.089Z,28.78
2017-12-15T02:49:34.342Z,17.30
2017-12-15T02:52:02.590Z,21.30
2017-12-15T02:54:30.888Z,22.30
2017-12-15T02:57:00.499Z,16.96
2017-12-15T02:59:29.846Z,20.34
2017-12-15T03:01:59.017Z,20.94
2017-12-15T03:04:27.302Z,13.50
2017-12-15T03:06:55.554Z,15.74
2017-12-15T03:09:23.849Z,15.88
2017-12-15T03:11:52.093Z,15.72
2017-12-15T03:14:20.361Z,26.04
2017-12-15T03:16:48.649Z,15.88
2017-12-15T03:19:16.901Z,15.42
2017-12-15T03:21:45.183Z,13.80
2017-12-15T03:24:13.457Z,21.26
2017-12-15T03:26:41.705Z,20.62
2017-12-15T03:29:10.004Z,15.22
2017-12-15T03:31:38.256Z,12.60
2017-12-15T03:34:06.510Z,16.48
2017-12-15T03:36:34.798Z,14.52
2017-12-15T03:39:03.082Z,18.70
2017-12-15T03:41:31.333Z,15.64
2017-12-15T03:43:59.596Z,16.62
2017-12-15T03:46:28.905Z,16.66
2017-12-15T03:48:57.964Z,18.20
2017-12-15T03:51:26.217Z,15.92
2017-12-15T03:53:54.466Z,12.80
2017-12-15T03:56:22.754Z,14.60
2017-12-15T03:58:51.020Z,20.40
2017-12-15T04:01:19.310Z,15.34
2017-12-15T04:03:47.554Z,13.14
2017-12-15T04:06:15.842Z,19.16
2017-12-15T04:08:44.091Z,20.48
2017-12-15T04:11:12.393Z,15.08
2017-12-15T04:13:40.655Z,12.86
2017-12-15T04:16:08.916Z,13.16
2017-12-15T04:18:37.208Z,13.98
2017-12-15T04:21:05.477Z,10.78
2017-12-15T04:23:33.766Z,15.22
2017-12-15T04:26:02.008Z,15.74
2017-12-15T04:28:30.287Z,16.08
2017-12-15T04:30:59.905Z,17.44
2017-12-15T04:33:29.142Z,18.28
2017-12-15T04:35:57.412Z,15.38
2017-12-15T04:38:25.680Z,16.56
2017-12-15T04:40:53.961Z,17.42
2017-12-15T04:43:22.210Z,15.18
2017-12-15T04:45:50.499Z,17.28
2017-12-15T04:48:18.750Z,16.94
2017-12-15T04:50:47.025Z,17.04
2017-12-15T04:53:15.324Z,15.34
2017-12-15T04:55:42.823Z,24.92
2017-12-15T04:58:11.077Z,17.54
2017-12-15T05:00:39.350Z,23.78
2017-12-15T05:03:07.593Z,16.12
2017-12-15T05:05:35.105Z,23.22
2017-12-15T05:08:03.378Z,17.16
2017-12-15T05:10:31.684Z,21.18
2017-12-15T05:12:59.926Z,28.64
2017-12-15T05:15:29.197Z,22.30
2017-12-15T05:17:56.739Z,18.34
2017-12-15T05:20:24.990Z,18.10
2017-12-15T05:22:53.239Z,22.08
2017-12-15T05:25:21.524Z,18.42
2017-12-15T05:27:49.818Z,14.94
2017-12-15T05:30:18.062Z,10.28
2017-12-15T05:32:46.314Z,20.20
2017-12-15T05:35:14.612Z,13.52
2017-12-15T05:37:42.862Z,18.78
2017-12-15T05:40:11.119Z,19.66
2017-12-15T05:42:39.409Z,11.30
2017-12-15T05:45:07.662Z,17.14
2017-12-15T05:47:35.913Z,16.56
2017-12-15T05:50:04.194Z,13.58
2017-12-15T05:52:32.474Z,17.70
2017-12-15T05:55:00.736Z,15.76
2017-12-15T05:57:30.302Z,19.62
2017-12-15T05:59:59.710Z,20.24
2017-12-15T06:02:28.906Z,18.06
2017-12-15T06:04:57.913Z,15.22
2017-12-15T06:07:26.203Z,16.42
2017-12-15T06:09:54.457Z,19.12
2017-12-15T06:12:22.708Z,13.48
2017-12-15T06:14:51.004Z,13.68
2017-12-15T06:17:19.293Z,16.32
2017-12-15T06:19:47.573Z,18.72
2017-12-15T06:22:15.843Z,15.54
2017-12-15T06:24:44.126Z,21.00
2017-12-15T06:27:12.401Z,17.04
2017-12-15T06:29:39.908Z,14.18
2017-12-15T06:32:08.195Z,12.00
2017-12-15T06:34:36.446Z,14.64
2017-12-15T06:37:04.748Z,17.12
2017-12-15T06:39:33.002Z,19.38
2017-12-15T06:42:01.250Z,15.86
2017-12-15T06:44:29.529Z,19.42
2017-12-15T06:46:58.804Z,20.08
2017-12-15T06:49:27.791Z,13.30
2017-12-15T06:51:56.098Z,16.70
2017-12-15T06:54:24.364Z,14.84
2017-12-15T06:56:52.618Z,12.28
2017-12-15T06:59:20.921Z,15.46
2017-12-15T07:01:49.171Z,12.46
2017-12-15T07:04:17.421Z,12.44
2017-12-15T07:06:45.697Z,14.06
2017-12-15T07:09:13.950Z,14.42
2017-12-15T07:11:42.229Z,14.86
2017-12-15T07:14:10.469Z,14.36
2017-12-15T07:16:38.757Z,15.78
2017-12-15T07:19:06.999Z,9.80
2017-12-15T07:21:35.257Z,12.56
2017-12-15T07:24:03.533Z,24.14
2017-12-15T07:26:31.781Z,12.22
2017-12-15T07:29:00.087Z,12.00
2017-12-15T07:31:28.574Z,13.04
2017-12-15T07:33:56.849Z,13.94
2017-12-15T07:36:25.107Z,8.64
2017-12-15T07:38:53.404Z,12.50
2017-12-15T07:41:21.654Z,11.64
2017-12-15T07:43:49.902Z,10.38
2017-12-15T07:46:18.190Z,18.30
2017-12-15T07:48:46.428Z,14.66
2017-12-15T07:51:14.693Z,16.76
2017-12-15T07:53:42.971Z,11.02
2017-12-15T07:56:11.225Z,12.64
2017-12-15T07:58:39.553Z,20.10
2017-12-15T08:01:07.848Z,15.48
2017-12-15T08:03:36.125Z,19.74
2017-12-15T08:06:04.365Z,16.36
2017-12-15T08:08:32.612Z,15.70
2017-12-15T08:11:00.892Z,18.46
2017-12-15T08:13:29.741Z,12.24
2017-12-15T08:15:58.977Z,19.20
2017-12-15T08:18:27.218Z,13.70
2017-12-15T08:20:55.690Z,15.62
2017-12-15T08:23:23.941Z,17.44
2017-12-15T08:25:52.186Z,13.22
2017-12-15T08:28:20.561Z,8.74
2017-12-15T08:30:48.806Z,16.44
2017-12-15T08:33:17.095Z,11.06
2017-12-15T08:35:45.332Z,15.14
2017-12-15T08:38:13.604Z,14.44
2017-12-15T08:40:41.890Z,12.36
2017-12-15T08:43:10.144Z,15.56
2017-12-15T08:45:39.317Z,16.60
2017-12-15T08:48:07.586Z,13.42
2017-12-15T08:50:35.833Z,18.04
2017-12-15T08:53:04.119Z,13.10
2017-12-15T08:55:49.282Z,16.88
2017-12-15T08:58:17.525Z,14.70
2017-12-15T09:00:45.797Z,11.16
2017-12-15T09:03:14.049Z,16.86
2017-12-15T09:05:42.322Z,15.58
2017-12-15T09:08:10.574Z,15.88
2017-12-15T09:10:38.858Z,11.70
2017-12-15T09:13:07.097Z,15.32
2017-12-15T09:15:35.345Z,12.32
2017-12-15T09:18:03.617Z,13.52
2017-12-15T09:20:31.868Z,17.48
2017-12-15T09:23:00.151Z,21.84
2017-12-15T09:25:29.277Z,12.18
2017-12-15T09:27:58.384Z,11.08
2017-12-15T09:30:26.672Z,11.90
2017-12-15T09:32:54.917Z,15.62
2017-12-15T09:35:23.185Z,14.16
2017-12-15T09:37:51.434Z,16.48
2017-12-15T09:40:19.714Z,14.74
2017-12-15T09:42:47.962Z,11.06
2017-12-15T09:45:16.247Z,11.32
2017-12-15T09:47:44.501Z,9.78
2017-12-15T09:50:12.773Z,12.20
2017-12-15T09:52:41.031Z,16.54
2017-12-15T09:55:09.301Z,14.20
2017-12-15T09:57:37.586Z,10.20
2017-12-15T10:00:05.846Z,17.66
2017-12-15T10:02:34.099Z,12.06
2017-12-15T10:05:02.374Z,9.14
2017-12-15T10:07:29.854Z,12.58
2017-12-15T10:09:59.494Z,13.40
2017-12-15T10:12:28.096Z,12.70
2017-12-15T10:14:56.370Z,17.96
2017-12-15T10:17:24.656Z,11.04
2017-12-15T10:19:53.815Z,16.30
2017-12-15T10:22:22.086Z,13.78
2017-12-15T10:24:50.334Z,21.80
2017-12-15T10:27:18.607Z,11.76
2017-12-15T10:29:46.864Z,12.86
2017-12-15T10:32:15.146Z,12.42
2017-12-15T10:34:43.390Z,12.80
2017-12-15T10:37:11.658Z,14.94
2017-12-15T10:39:39.902Z,10.04
2017-12-15T10:42:08.196Z,10.14
2017-12-15T10:44:36.489Z,15.32
2017-12-15T10:47:04.730Z,7.62
2017-12-15T10:49:32.973Z,15.08
2017-12-15T10:52:01.241Z,8.98
2017-12-15T10:54:30.492Z,9.40
2017-12-15T10:56:59.799Z,11.54
2017-12-15T10:59:29.604Z,12.10
2017-12-15T11:01:58.925Z,13.76
2017-12-15T11:04:27.196Z,9.28
2017-12-15T11:06:55.484Z,10.46
2017-12-15T11:09:23.754Z,14.04
2017-12-15T11:11:52.021Z,15.18
2017-12-15T11:14:20.270Z,13.34
2017-12-15T11:16:48.543Z,9.44
2017-12-15T11:19:16.781Z,9.90
2017-12-15T11:21:45.068Z,12.88
2017-12-15T11:24:13.314Z,18.88
2017-12-15T11:26:41.585Z,12.18
2017-12-15T11:29:09.835Z,12.44
2017-12-15T11:31:38.115Z,12.48
2017-12-15T11:34:09.340Z,11.72
2017-12-15T11:36:37.585Z,14.92
2017-12-15T11:39:05.861Z,13.46
2017-12-15T11:41:34.105Z,14.32
2017-12-15T11:44:02.390Z,12.80
2017-12-15T11:46:30.638Z,10.72
2017-12-15T11:48:59.285Z,12.50
2017-12-15T11:51:27.956Z,20.62
2017-12-15T11:53:56.195Z,14.90
2017-12-15T11:56:24.477Z,11.56
2017-12-15T11:58:52.720Z,17.42
2017-12-15T12:01:20.971Z,10.14
2017-12-15T12:03:48.485Z,46.80
2017-12-15T12:06:16.729Z,13.70
2017-12-15T12:08:45.032Z,8.48
2017-12-15T12:11:13.259Z,14.28
2017-12-15T12:13:41.534Z,9.70
2017-12-15T12:16:09.774Z,13.80
2017-12-15T12:18:38.037Z,14.54
2017-12-15T12:21:06.325Z,12.88
2017-12-15T12:23:34.606Z,10.92
2017-12-15T12:26:02.861Z,13.74
2017-12-15T12:28:31.125Z,7.84
2017-12-15T12:31:00.012Z,12.22
2017-12-15T12:33:28.795Z,12.12
2017-12-15T12:35:57.061Z,11.56
2017-12-15T12:38:24.625Z,13.00
2017-12-15T12:40:52.833Z,12.18
2017-12-15T12:43:21.110Z,14.00
2017-12-15T12:45:49.362Z,8.76
2017-12-15T12:48:17.633Z,7.32
2017-12-15T12:50:46.973Z,10.10
2017-12-15T12:53:15.265Z,11.06
2017-12-15T12:55:43.542Z,11.50
2017-12-15T12:58:11.792Z,10.60
2017-12-15T13:00:40.046Z,13.98
2017-12-15T13:03:08.318Z,8.94
2017-12-15T13:05:36.562Z,5.68
2017-12-15T13:08:04.837Z,8.04
2017-12-15T13:10:33.104Z,7.00
2017-12-15T13:13:01.360Z,9.60
2017-12-15T13:15:29.957Z,8.30
2017-12-15T13:17:59.433Z,8.74
2017-12-15T13:20:27.709Z,8.30
2017-12-15T13:22:55.953Z,9.04
2017-12-15T13:25:24.234Z,11.04
2017-12-15T13:27:56.097Z,9.06
2017-12-15T13:30:24.375Z,8.94
2017-12-15T13:32:52.617Z,7.78
2017-12-15T13:35:20.093Z,11.90
2017-12-15T13:37:48.370Z,8.70
2017-12-15T13:40:16.605Z,17.70
2017-12-15T13:42:44.877Z,9.80
2017-12-15T13:45:13.113Z,9.84
2017-12-15T13:47:41.385Z,8.12
2017-12-15T13:50:09.629Z,8.16
2017-12-15T13:52:37.867Z,9.16
2017-12-15T13:55:06.137Z,7.80
2017-12-15T13:57:34.372Z,10.76
2017-12-15T14:00:02.649Z,9.64
2017-12-15T14:02:30.898Z,6.10
2017-12-15T14:04:59.966Z,7.30
2017-12-15T14:07:28.985Z,8.86
2017-12-15T14:09:56.458Z,9.64
2017-12-15T14:12:24.734Z,6.24
2017-12-15T14:14:52.973Z,8.84
2017-12-15T14:17:21.250Z,7.72
2017-12-15T14:19:49.489Z,11.10
2017-12-15T14:22:17.730Z,6.98
2017-12-15T14:24:46.016Z,6.56
2017-12-15T14:27:14.316Z,12.18
2017-12-15T14:29:42.560Z,11.54
2017-12-15T14:32:10.794Z,8.78
2017-12-15T14:34:39.062Z,7.32
2017-12-15T14:37:07.338Z,7.34
2017-12-15T14:39:35.628Z,7.68
2017-12-15T14:42:03.866Z,11.02
2017-12-15T14:44:32.103Z,8.70
2017-12-15T14:47:00.392Z,20.06
2017-12-15T14:49:29.658Z,9.78
2017-12-15T14:51:59.150Z,10.46
2017-12-15T14:54:28.219Z,9.48
2017-12-15T14:56:56.493Z,8.32
2017-12-15T14:59:24.734Z,9.26
2017-12-15T15:01:53.007Z,13.16
2017-12-15T15:04:21.249Z,10.48
2017-12-15T15:06:49.533Z,7.38
2017-12-15T15:09:17.779Z,7.36
2017-12-15T15:11:46.056Z,8.84
2017-12-15T15:14:14.293Z,7.54
2017-12-15T15:16:42.533Z,17.14
2017-12-15T15:19:10.806Z,7.72
2017-12-15T15:21:39.045Z,8.10
2017-12-15T15:24:07.329Z,12.08
2017-12-15T15:26:35.565Z,8.44
2017-12-15T15:29:03.841Z,9.48
2017-12-15T15:31:32.087Z,10.56
2017-12-15T15:33:59.587Z,10.98
2017-12-15T15:36:29.835Z,10.12
2017-12-15T15:38:59.167Z,8.38
2017-12-15T15:41:31.737Z,13.30
2017-12-15T15:43:59.998Z,9.74
2017-12-15T15:46:36.098Z,11.38
2017-12-15T15:49:04.382Z,9.88
2017-12-15T15:51:32.639Z,13.34
2017-12-15T15:54:00.910Z,8.52
2017-12-15T15:56:31.090Z,8.90
2017-12-15T15:59:00.574Z,9.56
2017-12-15T16:01:49.680Z,10.38
2017-12-15T16:04:17.949Z,8.96
2017-12-15T16:06:46.221Z,12.04
2017-12-15T16:09:14.496Z,12.40
2017-12-15T16:11:42.729Z,8.54
2017-12-15T16:14:10.993Z,10.04
2017-12-15T16:16:39.281Z,10.82
2017-12-15T16:19:06.753Z,12.02
2017-12-15T16:21:35.029Z,9.88
2017-12-15T16:24:03.269Z,10.12
2017-12-15T16:26:31.550Z,7.60
2017-12-15T16:28:59.790Z,9.30
2017-12-15T16:31:28.988Z,9.82
2017-12-15T16:33:57.263Z,11.22
2017-12-15T16:36:25.530Z,8.20
2017-12-15T16:38:53.810Z,8.90
2017-12-15T16:41:22.068Z,9.80
2017-12-15T16:43:50.323Z,10.52
2017-12-15T16:46:18.616Z,8.30
2017-12-15T16:48:46.866Z,10.80
2017-12-15T16:51:15.104Z,9.30
2017-12-15T16:53:43.377Z,9.52
2017-12-15T16:56:11.631Z,11.10
2017-12-15T16:58:39.901Z,14.60
2017-12-15T17:01:08.158Z,11.12
2017-12-15T17:03:36.433Z,11.00
2017-12-15T17:06:04.691Z,13.08
2017-12-15T17:08:33.039Z,10.28
2017-12-15T17:11:01.246Z,16.64
2017-12-15T17:13:30.114Z,11.18
2017-12-15T17:15:59.234Z,14.44
2017-12-15T17:18:28.356Z,12.62
2017-12-15T17:20:56.634Z,12.06
2017-12-15T17:23:24.873Z,8.86
2017-12-15T17:25:53.118Z,13.86
2017-12-15T17:28:21.386Z,13.28
2017-12-15T17:30:49.639Z,9.78
2017-12-15T17:33:17.944Z,12.94
2017-12-15T17:35:46.194Z,10.90
2017-12-15T17:38:13.674Z,11.12
2017-12-15T17:40:41.942Z,14.72
2017-12-15T17:43:10.185Z,11.74
2017-12-15T17:45:38.472Z,12.84
2017-12-15T17:48:06.709Z,10.70
2017-12-15T17:50:34.982Z,11.50
2017-12-15T17:53:03.249Z,12.84
2017-12-15T17:55:31.503Z,10.94
2017-12-15T17:57:59.874Z,9.98
2017-12-15T18:00:29.328Z,12.00
2017-12-15T18:02:58.420Z,10.30
2017-12-15T18:05:26.702Z,12.72
2017-12-15T18:07:54.945Z,15.78
2017-12-15T18:10:23.195Z,13.60
2017-12-15T18:12:51.470Z,11.86
2017-12-15T18:15:19.778Z,12.40
2017-12-15T18:17:48.036Z,13.50
2017-12-15T18:20:16.286Z,14.28
2017-12-15T18:22:44.579Z,10.96
2017-12-15T18:25:12.840Z,14.14
2017-12-15T18:27:41.125Z,16.30
2017-12-15T18:30:09.373Z,13.80
2017-12-15T18:32:37.652Z,14.82
2017-12-15T18:35:05.911Z,13.52
2017-12-15T18:37:34.188Z,14.04
2017-12-15T18:40:02.425Z,14.80
2017-12-15T18:42:30.713Z,19.96
2017-12-15T18:45:00.153Z,16.62
2017-12-15T18:47:28.869Z,19.30
2017-12-15T18:49:56.400Z,15.60
2017-12-15T18:52:24.653Z,15.28
2017-12-15T18:54:52.920Z,12.64
2017-12-15T18:57:21.189Z,20.14
2017-12-15T18:59:49.455Z,17.82
2017-12-15T19:02:17.741Z,16.36
2017-12-15T19:04:45.218Z,16.98
2017-12-15T19:07:13.494Z,17.46
2017-12-15T19:09:41.777Z,15.46
2017-12-15T19:12:10.026Z,18.38
2017-12-15T19:14:38.302Z,15.84
2017-12-15T19:17:06.548Z,18.16
2017-12-15T19:19:34.071Z,16.32
2017-12-15T19:22:02.318Z,17.90
2017-12-15T19:24:29.833Z,17.32
2017-12-15T19:26:58.889Z,17.54
2017-12-15T19:29:27.160Z,17.82
2017-12-15T19:31:55.443Z,15.16
2017-12-15T19:34:23.703Z,12.92
2017-12-15T19:36:51.977Z,17.30
2017-12-15T19:39:20.268Z,14.80
2017-12-15T19:41:48.556Z,16.40
2017-12-15T19:44:16.038Z,17.10
2017-12-15T19:46:44.290Z,25.72
2017-12-15T19:49:12.570Z,18.50
2017-12-15T19:51:40.901Z,17.82
2017-12-15T19:54:09.183Z,18.34
2017-12-15T19:56:37.461Z,21.58
2017-12-15T19:59:05.754Z,11.10
2017-12-15T20:01:34.003Z,14.64
2017-12-15T20:04:02.304Z,16.14
2017-12-15T20:06:29.826Z,15.98
2017-12-15T20:08:58.847Z,19.22
2017-12-15T20:11:27.135Z,18.94
2017-12-15T20:13:55.398Z,21.08
2017-12-15T20:16:23.687Z,18.98
2017-12-15T20:18:52.035Z,20.00
2017-12-15T20:21:20.345Z,19.78
2017-12-15T20:23:48.677Z,20.34
2017-12-15T20:26:16.227Z,20.70
2017-12-15T20:28:44.473Z,23.28
2017-12-15T20:31:12.776Z,23.04
2017-12-15T20:33:41.073Z,19.74
2017-12-15T20:36:08.581Z,20.18
2017-12-15T20:38:36.868Z,21.02
2017-12-15T20:41:05.121Z,24.98
2017-12-15T20:43:33.408Z,20.36
2017-12-15T20:46:01.741Z,19.94
2017-12-15T20:48:30.075Z,20.02
2017-12-15T20:50:59.351Z,21.96
2017-12-15T20:53:27.655Z,22.70
2017-12-15T20:55:55.954Z,29.70
2017-12-15T20:58:24.261Z,23.04
2017-12-15T21:00:52.584Z,23.08
2017-12-15T21:03:20.874Z,26.16
2017-12-15T21:05:49.144Z,20.84
2017-12-15T21:08:17.440Z,28.92
2017-12-15T21:10:45.785Z,21.04
2017-12-15T21:13:14.098Z,26.74
2017-12-15T21:15:42.350Z,18.74
2017-12-15T21:18:10.669Z,22.46
2017-12-15T21:20:39.001Z,22.28
2017-12-15T21:23:07.329Z,21.30
2017-12-15T21:25:35.664Z,24.02
2017-12-15T21:28:03.964Z,23.88
2017-12-15T21:30:32.318Z,32.98
2017-12-15T21:33:00.576Z,33.86
2017-12-15T21:35:29.735Z,26.86
2017-12-15T21:37:59.008Z,30.94
2017-12-15T21:40:28.552Z,25.26
2017-12-15T21:42:56.825Z,24.62
2017-12-15T21:45:25.116Z,30.16
2017-12-15T21:47:53.420Z,35.86
2017-12-15T21:50:21.720Z,31.02
2017-12-15T21:52:49.966Z,30.08
2017-12-15T21:55:18.262Z,21.88
2017-12-15T21:57:46.564Z,21.64
2017-12-15T22:00:14.861Z,31.56
2017-12-15T22:02:43.207Z,38.00
2017-12-15T22:05:11.516Z,34.88
2017-12-15T22:07:39.798Z,36.84
2017-12-15T22:10:08.106Z,32.16
2017-12-15T22:12:36.367Z,24.38
2017-12-15T22:15:04.656Z,24.42
2017-12-15T22:17:33.000Z,25.52
2017-12-15T22:20:00.488Z,30.46
2017-12-15T22:22:29.819Z,24.74
2017-12-15T22:24:59.247Z,26.82
2017-12-15T22:27:27.576Z,34.28
2017-12-15T22:29:55.864Z,24.82
2017-12-15T22:32:24.110Z,26.88
2017-12-15T22:34:52.399Z,24.98
2017-12-15T22:37:20.657Z,29.68
2017-12-15T22:39:48.984Z,26.18
2017-12-15T22:42:17.272Z,27.52
2017-12-15T22:44:45.608Z,30.36
2017-12-15T22:47:13.867Z,30.72
2017-12-15T22:49:42.126Z,25.26
2017-12-15T22:52:10.479Z,27.56
2017-12-15T22:54:38.735Z,29.62
2017-12-15T22:57:06.978Z,27.94
2017-12-15T22:59:35.272Z,29.60
2017-12-15T23:02:03.583Z,33.76
2017-12-15T23:04:31.838Z,35.68
2017-12-15T23:07:00.132Z,29.84
2017-12-15T23:09:28.881Z,37.80
2017-12-15T23:11:57.209Z,32.78
2017-12-15T23:14:25.511Z,29.94
2017-12-15T23:16:53.815Z,27.54
2017-12-15T23:19:22.135Z,25.20
2017-12-15T23:21:50.381Z,28.80
2017-12-15T23:24:18.716Z,31.54
2017-12-15T23:26:47.026Z,26.68
2017-12-15T23:29:15.283Z,32.24
2017-12-15T23:31:43.570Z,29.00
2017-12-15T23:34:11.822Z,29.06
2017-12-15T23:36:40.087Z,28.90
2017-12-15T23:39:08.362Z,28.28
2017-12-15T23:41:36.652Z,29.44
2017-12-15T23:44:04.932Z,25.74
2017-12-15T23:46:33.200Z,28.24
2017-12-15T23:49:01.494Z,26.06
2017-12-15T23:51:29.750Z,28.80
2017-12-15T23:53:58.354Z,22.02
2017-12-15T23:56:38.511Z,27.62
2017-12-15T23:59:06.823Z,27.68
